Time;durP1;ratioP1;P1;durP2;ratioP2;P2;SDS_P1;SDS_P2;PMS_P1;PMS_P2;Temp;Humidity;BMP_temperature;BMP_pressure;BME280_temperature;BME280_humidity;BME280_pressure;Samples;Min_cycle;Max_cycle;Signal;HPM_P1;HPM_P2
2022/11/13 00:00:05;;;;;;;50.40;23.80;;;;;;;6.11;100.00;101029.23;103979;1333;22087;-33
2022/11/13 00:02:33;;;;;;;42.40;19.10;;;;;;;6.10;100.00;101031.16;103986;1333;22234;-36
2022/11/13 00:04:58;;;;;;;53.90;24.90;;;;;;;6.10;100.00;101031.89;103953;1340;22342;-34
2022/11/13 00:07:24;;;;;;;62.20;27.70;;;;;;;6.12;100.00;101030.25;103827;1333;22514;-33
2022/11/13 00:09:50;;;;;;;51.60;24.40;;;;;;;6.13;100.00;101028.58;103834;1341;22557;-37
2022/11/13 00:12:15;;;;;;;39.10;18.90;;;;;;;6.12;100.00;101029.94;103820;1340;22721;-34
2022/11/13 00:14:41;;;;;;;51.80;24.20;;;;;;;6.13;100.00;101034.42;103621;1334;22169;-37
2022/11/13 00:17:06;;;;;;;32.40;16.80;;;;;;;6.15;100.00;101035.02;103816;1333;22533;-38
2022/11/13 00:19:32;;;;;;;32.60;15.70;;;;;;;6.15;100.00;101036.03;103896;1333;22525;-36
2022/11/13 00:21:59;;;;;;;37.20;19.30;;;;;;;6.19;100.00;101035.20;103804;1341;22493;-36
2022/11/13 00:24:24;;;;;;;33.80;18.90;;;;;;;6.22;100.00;101021.20;103753;1333;22595;-37
2022/11/13 00:26:50;;;;;;;44.60;19.90;;;;;;;6.20;100.00;101012.66;103867;1341;22498;-37
2022/11/13 00:29:16;;;;;;;38.40;18.30;;;;;;;6.18;100.00;101014.63;103621;1340;22534;-37
2022/11/13 00:31:41;;;;;;;29.80;13.10;;;;;;;6.20;100.00;101020.17;103717;1341;22547;-33
2022/11/13 00:34:09;;;;;;;31.90;14.70;;;;;;;6.24;100.00;101021.25;103605;1326;22660;-34
2022/11/13 00:36:34;;;;;;;16.60;9.10;;;;;;;6.29;100.00;101025.77;103918;1334;22054;-34
2022/11/13 00:39:00;;;;;;;43.00;19.40;;;;;;;6.35;100.00;101025.00;103519;1334;22553;-33
2022/11/13 00:41:25;;;;;;;34.10;16.90;;;;;;;6.38;100.00;101020.45;103655;1341;22211;-36
2022/11/13 00:43:51;;;;;;;45.30;20.10;;;;;;;6.38;100.00;101014.52;103825;1334;22520;-33
2022/11/13 00:46:17;;;;;;;66.10;27.00;;;;;;;6.40;100.00;101013.33;103454;1341;24691;-38
2022/11/13 00:48:42;;;;;;;47.30;22.60;;;;;;;6.44;100.00;101016.91;103788;1341;22534;-34
2022/11/13 00:51:08;;;;;;;43.80;18.80;;;;;;;6.47;100.00;101010.59;103611;1341;22122;-36
2022/11/13 00:53:34;;;;;;;51.60;27.20;;;;;;;6.48;100.00;101009.05;103969;1341;22178;-36
2022/11/13 00:56:00;;;;;;;74.80;36.80;;;;;;;6.48;100.00;101004.61;103925;1341;22532;-36
2022/11/13 00:58:26;;;;;;;42.00;19.70;;;;;;;6.48;100.00;100999.84;103851;1340;23012;-34
2022/11/13 01:00:51;;;;;;;59.10;27.50;;;;;;;6.54;100.00;101003.08;103956;1341;22174;-38
2022/11/13 01:03:17;;;;;;;37.80;19.40;;;;;;;6.55;100.00;101002.74;103923;1341;22478;-34
2022/11/13 01:05:44;;;;;;;74.10;32.30;;;;;;;6.53;100.00;100988.66;103528;1340;22526;-39
2022/11/13 01:08:11;;;;;;;79.20;28.80;;;;;;;6.51;100.00;100985.34;103957;1341;22234;-33
2022/11/13 01:10:41;;;;;;;46.70;21.70;;;;;;;6.50;100.00;100992.71;103930;1327;22045;-37
2022/11/13 01:13:07;;;;;;;35.20;17.80;;;;;;;6.50;100.00;100988.09;103954;1334;22138;-37
2022/11/13 01:15:32;;;;;;;41.30;21.60;;;;;;;6.50;100.00;100986.80;103969;1341;22512;-34
2022/11/13 01:17:58;;;;;;;43.10;20.70;;;;;;;6.53;100.00;100993.87;103959;1341;22066;-33
2022/11/13 01:20:24;;;;;;;29.10;16.60;;;;;;;6.54;100.00;100988.11;104003;1333;22275;-37
2022/11/13 01:22:49;;;;;;;37.00;18.70;;;;;;;6.57;100.00;100985.50;103988;1341;22535;-37
2022/11/13 01:25:16;;;;;;;33.30;18.00;;;;;;;6.58;100.00;100986.88;104002;1333;22175;-34
2022/11/13 01:27:41;;;;;;;;;;;;;;;6.57;100.00;100986.94;103982;1341;22025;-37
2022/11/13 01:30:08;;;;;;;33.50;18.00;;;;;;;6.57;100.00;100984.61;104027;1330;22162;-34
2022/11/13 01:32:33;;;;;;;75.70;34.20;;;;;;;6.55;100.00;100982.50;103979;1336;22204;-37
2022/11/13 01:34:59;;;;;;;63.10;32.80;;;;;;;6.53;100.00;100982.48;103935;1341;22167;-34
2022/11/13 01:37:24;;;;;;;71.40;34.90;;;;;;;6.52;100.00;100979.71;103948;1336;22541;-35
2022/11/13 01:39:50;;;;;;;57.80;28.60;;;;;;;6.51;100.00;100972.50;103983;1339;22115;-37
2022/11/13 01:42:16;;;;;;;43.60;20.60;;;;;;;6.53;100.00;100966.49;103829;1334;22161;-37
2022/11/13 01:44:47;;;;;;;43.20;20.40;;;;;;;6.55;100.00;100971.98;103994;1339;22203;-37
2022/11/13 01:47:13;;;;;;;33.40;15.20;;;;;;;6.54;100.00;100969.89;104013;1336;22157;-37
2022/11/13 01:49:39;;;;;;;37.50;19.50;;;;;;;6.56;100.00;100968.86;103983;1341;22387;-37
2022/11/13 01:52:09;;;;;;;36.70;18.80;;;;;;;6.58;100.00;100960.16;103987;1326;22462;-37
2022/11/13 01:54:40;;;;;;;34.80;20.20;;;;;;;6.62;100.00;100960.75;103955;1341;22572;-34
2022/11/13 01:57:05;;;;;;;40.10;17.90;;;;;;;6.66;100.00;100961.14;103925;1341;22525;-34
2022/11/13 01:59:35;;;;;;;25.60;15.10;;;;;;;6.67;100.00;100959.23;103648;1333;22127;-34
2022/11/13 02:02:00;;;;;;;26.90;15.10;;;;;;;6.66;100.00;100959.85;103979;1340;22307;-37
2022/11/13 02:04:26;;;;;;;31.10;15.60;;;;;;;6.64;100.00;100951.27;103998;1330;22621;-37
2022/11/13 02:06:56;;;;;;;34.10;16.90;;;;;;;6.65;100.00;100948.08;104006;1333;22251;-37
2022/11/13 02:09:24;;;;;;;35.10;18.60;;;;;;;6.61;100.00;100948.86;103959;1341;22275;-37
2022/11/13 02:11:50;;;;;;;38.40;18.80;;;;;;;6.60;100.00;100945.80;104008;1333;22271;-37
2022/11/13 02:14:16;;;;;;;35.60;19.30;;;;;;;6.60;100.00;100938.70;103977;1341;22226;-37
2022/11/13 02:16:42;;;;;;;25.90;15.50;;;;;;;6.56;100.00;100939.69;103985;1341;22220;-34
2022/11/13 02:19:12;;;;;;;51.40;21.30;;;;;;;6.57;100.00;100934.30;104054;1333;22343;-37
2022/11/13 02:21:44;;;;;;;21.70;11.10;;;;;;;6.53;100.00;100931.01;103867;1341;22082;-34
2022/11/13 02:24:15;;;;;;;38.60;20.50;;;;;;;6.52;100.00;100932.91;104007;1341;22400;-37
2022/11/13 02:26:41;;;;;;;50.00;20.10;;;;;;;6.53;100.00;100933.54;103758;1340;23268;-34
2022/11/13 02:29:06;;;;;;;52.00;22.20;;;;;;;6.53;100.00;100935.45;103766;1341;22198;-37
2022/11/13 02:31:32;;;;;;;57.10;23.60;;;;;;;6.52;100.00;100926.81;103966;1341;22580;-37
2022/11/13 02:34:00;;;;;;;42.80;22.40;;;;;;;6.49;100.00;100924.66;104018;1340;22205;-37
2022/11/13 02:36:26;;;;;;;38.10;18.50;;;;;;;6.46;100.00;100923.13;103992;1341;22137;-37
2022/11/13 02:38:51;;;;;;;39.20;20.60;;;;;;;6.48;100.00;100919.79;103992;1341;22228;-37
2022/11/13 02:41:17;;;;;;;23.70;12.10;;;;;;;6.46;100.00;100919.91;103799;1340;22092;-37
2022/11/13 02:43:43;;;;;;;37.10;19.00;;;;;;;6.46;100.00;100917.11;103984;1341;22505;-34
2022/11/13 02:46:08;;;;;;;52.40;24.70;;;;;;;6.49;100.00;100915.05;104014;1334;22339;-34
2022/11/13 02:48:34;;;;;;;34.40;19.50;;;;;;;6.51;100.00;100912.71;103769;1341;22202;-34
2022/11/13 02:51:00;;;;;;;43.20;22.80;;;;;;;6.48;100.00;100910.83;103918;1341;22078;-37
2022/11/13 02:53:26;;;;;;;38.10;20.50;;;;;;;6.50;100.00;100913.66;103993;1320;22200;-37
2022/11/13 02:55:51;;;;;;;45.90;21.50;;;;;;;6.53;100.00;100909.91;103964;1334;22385;-37
2022/11/13 02:58:17;;;;;;;58.50;26.70;;;;;;;6.50;100.00;100915.44;103976;1340;22019;-37
2022/11/13 03:00:43;;;;;;;53.10;28.60;;;;;;;6.48;100.00;100915.81;104017;1341;22207;-37
2022/11/13 03:03:08;;;;;;;43.60;24.00;;;;;;;6.46;100.00;100912.59;103970;1341;22151;-37
2022/11/13 03:05:34;;;;;;;48.30;22.00;;;;;;;6.49;100.00;100910.73;104000;1340;22138;-37
2022/11/13 03:07:59;;;;;;;49.90;26.20;;;;;;;6.52;100.00;100911.56;103998;1335;22207;-34
2022/11/13 03:10:25;;;;;;;47.80;24.10;;;;;;;6.45;100.00;100903.26;103974;1340;22083;-37
2022/11/13 03:12:50;;;;;;;78.40;43.10;;;;;;;6.43;100.00;100905.59;103946;1341;22425;-37
2022/11/13 03:15:16;;;;;;;199.80;127.70;;;;;;;6.44;100.00;100903.94;103825;1335;22225;-34
2022/11/13 03:17:42;;;;;;;67.10;43.90;;;;;;;6.41;100.00;100906.11;103962;1341;22492;-37
2022/11/13 03:20:08;;;;;;;58.70;30.80;;;;;;;6.42;100.00;100906.90;103973;1340;22603;-34
2022/11/13 03:22:33;;;;;;;70.80;29.50;;;;;;;6.42;100.00;100908.55;104018;1340;22230;-34
2022/11/13 03:24:59;;;;;;;59.90;29.90;;;;;;;6.40;100.00;100906.38;103875;1341;22316;-38
2022/11/13 03:27:25;;;;;;;60.50;31.80;;;;;;;6.38;100.00;100904.43;103913;1341;22226;-33
2022/11/13 03:29:50;;;;;;;629.10;332.40;;;;;;;6.35;100.00;100898.97;104001;1341;22186;-35
2022/11/13 03:32:17;;;;;;;202.20;80.60;;;;;;;6.33;100.00;100900.64;103968;1317;22054;-32
2022/11/13 03:34:43;;;;;;;574.40;279.20;;;;;;;6.30;100.00;100902.81;103992;1341;22159;-32
2022/11/13 03:37:08;;;;;;;274.50;140.80;;;;;;;6.27;100.00;100901.98;104004;1334;22278;-32
2022/11/13 03:39:34;;;;;;;567.30;356.10;;;;;;;6.24;100.00;100901.53;103968;1333;22158;-35
2022/11/13 03:41:59;;;;;;;171.80;96.70;;;;;;;6.22;100.00;100895.89;103999;1341;22262;-35
2022/11/13 03:44:25;;;;;;;150.60;81.70;;;;;;;6.19;100.00;100895.40;103817;1340;22176;-35
2022/11/13 03:46:51;;;;;;;87.00;45.20;;;;;;;6.16;100.00;100898.33;103927;1333;22192;-32
2022/11/13 03:49:16;;;;;;;83.10;45.40;;;;;;;6.15;100.00;100893.23;103882;1338;22172;-32
2022/11/13 03:51:42;;;;;;;117.10;81.10;;;;;;;6.13;100.00;100892.91;103602;1339;22175;-33
2022/11/13 03:54:07;;;;;;;74.20;40.60;;;;;;;6.11;100.00;100895.06;103966;1341;22136;-34
2022/11/13 03:56:34;;;;;;;118.00;75.80;;;;;;;6.08;100.00;100896.83;103983;1333;22511;-36
2022/11/13 03:59:00;;;;;;;44.60;24.20;;;;;;;6.08;100.00;100894.73;103959;1341;22189;-37
2022/11/13 04:01:25;;;;;;;;;;;;;;;6.05;100.00;100888.77;103984;1341;22023;-33
2022/11/13 04:03:51;;;;;;;66.00;30.60;;;;;;;6.02;100.00;100890.74;103982;1336;22178;-37
2022/11/13 04:06:16;;;;;;;52.30;26.80;;;;;;;6.00;100.00;100890.26;103987;1341;22199;-37
2022/11/13 04:08:42;;;;;;;46.00;24.20;;;;;;;5.98;100.00;100891.81;103663;1328;428378;-37
2022/11/13 04:11:09;;;;;;;84.80;33.70;;;;;;;5.98;100.00;100892.71;103969;1327;22579;-37
2022/11/13 04:13:34;;;;;;;68.00;27.00;;;;;;;5.99;100.00;100892.08;103923;1327;22084;-36
2022/11/13 04:16:00;;;;;;;68.70;27.60;;;;;;;5.99;100.00;100892.77;103999;1341;22596;-33
2022/11/13 04:18:26;;;;;;;72.50;31.10;;;;;;;5.96;100.00;100896.99;103811;1340;22604;-33
2022/11/13 04:20:51;;;;;;;61.40;27.30;;;;;;;5.95;100.00;100894.05;103962;1340;22517;-36
2022/11/13 04:23:17;;;;;;;53.60;26.70;;;;;;;5.92;100.00;100899.46;103877;1341;22037;-33
2022/11/13 04:25:43;;;;;;;57.90;25.10;;;;;;;5.90;100.00;100899.76;103977;1328;22183;-37
2022/11/13 04:28:09;;;;;;;38.10;21.20;;;;;;;5.91;100.00;100896.15;104021;1334;22261;-33
2022/11/13 04:30:35;;;;;;;44.30;22.10;;;;;;;5.92;100.00;100897.88;103985;1341;22203;-33
2022/11/13 04:33:01;;;;;;;54.20;26.30;;;;;;;5.90;100.00;100901.52;103973;1342;22253;-36
2022/11/13 04:35:27;;;;;;;49.70;23.20;;;;;;;5.91;100.00;100901.88;103802;1334;22504;-36
2022/11/13 04:37:53;;;;;;;54.30;28.50;;;;;;;5.89;100.00;100902.87;103994;1333;22032;-33
2022/11/13 04:40:18;;;;;;;76.70;42.30;;;;;;;5.89;100.00;100908.90;103959;1340;22204;-36
2022/11/13 04:45:14;;;;;;;53.50;26.50;;;;;;;5.88;100.00;100908.84;103942;1341;22365;-34
2022/11/13 04:47:39;;;;;;;45.30;22.20;;;;;;;5.89;100.00;100909.98;103990;1341;22347;-36
2022/11/13 04:50:05;;;;;;;52.70;24.30;;;;;;;5.90;100.00;100910.48;103987;1341;22369;-37
2022/11/13 04:52:31;;;;;;;49.90;25.10;;;;;;;5.91;100.00;100911.92;103946;1341;22696;-34
2022/11/13 04:54:56;;;;;;;56.10;27.20;;;;;;;5.91;100.00;100906.48;103985;1327;22210;-37
2022/11/13 04:57:23;;;;;;;60.20;25.60;;;;;;;5.92;100.00;100912.95;103953;1334;22592;-33
2022/11/13 04:59:48;;;;;;;41.30;21.90;;;;;;;5.93;100.00;100916.08;103996;1341;22283;-36
2022/11/13 05:02:14;;;;;;;43.90;21.10;;;;;;;5.98;100.00;100914.78;103954;1334;22577;-37
2022/11/13 05:04:39;;;;;;;47.20;20.40;;;;;;;5.98;100.00;100911.00;103600;1341;22132;-33
2022/11/13 05:07:05;;;;;;;66.10;27.00;;;;;;;5.97;100.00;100907.97;103969;1333;22141;-34
2022/11/13 05:09:31;;;;;;;49.30;19.50;;;;;;;5.95;100.00;100910.42;103972;1340;22214;-33
2022/11/13 05:11:56;;;;;;;56.70;23.80;;;;;;;5.95;100.00;100910.45;103932;1338;22516;-34
2022/11/13 05:14:22;;;;;;;55.20;22.30;;;;;;;5.95;100.00;100911.83;103213;1340;22074;-37
2022/11/13 05:16:49;;;;;;;51.80;21.40;;;;;;;5.96;100.00;100909.62;103981;1341;22162;-33
2022/11/13 05:19:15;;;;;;;64.60;25.80;;;;;;;5.95;100.00;100908.41;103982;1340;22457;-37
2022/11/13 05:21:41;;;;;;;54.40;24.50;;;;;;;5.94;100.00;100903.35;103999;1341;22502;-34
2022/11/13 05:24:09;;;;;;;68.40;26.50;;;;;;;5.95;100.00;100904.38;104001;1341;22178;-37
2022/11/13 05:26:36;;;;;;;79.30;31.50;;;;;;;5.95;100.00;100911.08;104004;1340;23415;-33
2022/11/13 05:29:02;;;;;;;56.80;26.50;;;;;;;5.95;100.00;100911.27;104004;1340;22230;-37
2022/11/13 05:31:28;;;;;;;53.90;22.60;;;;;;;5.91;100.00;100903.92;103498;1342;22531;-33
2022/11/13 05:33:53;;;;;;;48.20;23.90;;;;;;;5.94;100.00;100910.14;103808;1341;22409;-37
2022/11/13 05:36:20;;;;;;;59.70;27.70;;;;;;;5.96;100.00;100911.73;103975;1340;22230;-34
2022/11/13 05:38:45;;;;;;;56.80;24.40;;;;;;;5.95;100.00;100910.44;103856;1341;22218;-33
2022/11/13 05:41:12;;;;;;;41.30;21.90;;;;;;;5.91;100.00;100910.21;103802;1333;22087;-33
2022/11/13 05:43:38;;;;;;;55.60;23.70;;;;;;;5.87;100.00;100911.58;103979;1334;22364;-33
2022/11/13 05:46:07;;;;;;;43.90;21.50;;;;;;;5.84;100.00;100915.92;103976;1333;22190;-36
2022/11/13 05:48:33;;;;;;;38.70;19.50;;;;;;;5.83;100.00;100917.64;103945;1341;22515;-33
2022/11/13 05:51:03;;;;;;;48.00;22.10;;;;;;;5.83;100.00;100915.64;103959;1341;22531;-33
2022/11/13 05:53:28;;;;;;;54.90;21.30;;;;;;;5.83;100.00;100909.58;103982;1334;22515;-37
2022/11/13 05:55:59;;;;;;;59.50;28.10;;;;;;;5.84;100.00;100906.31;104007;1325;22230;-33
2022/11/13 05:58:27;;;;;;;35.70;10.00;;;;;;;5.85;100.00;100906.96;103904;1333;22509;-36
2022/11/13 06:00:52;;;;;;;69.40;34.50;;;;;;;5.83;100.00;100905.54;103848;1341;22725;-33
2022/11/13 06:03:18;;;;;;;47.60;20.60;;;;;;;5.80;100.00;100900.05;103933;1341;22143;-36
2022/11/13 06:05:43;;;;;;;;;;;;;;;5.80;100.00;100900.27;103953;1334;22031;-33
2022/11/13 06:08:09;;;;;;;48.10;21.50;;;;;;;5.80;100.00;100900.23;103865;1341;22225;-37
2022/11/13 06:10:34;;;;;;;69.70;28.20;;;;;;;5.79;100.00;100897.34;103941;1333;22143;-33
2022/11/13 06:13:00;;;;;;;59.10;24.80;;;;;;;5.80;100.00;100897.62;103879;1334;22531;-37
2022/11/13 06:15:25;;;;;;;32.50;15.70;;;;;;;5.80;100.00;100894.60;103979;1341;22170;-33
2022/11/13 06:17:51;;;;;;;51.50;23.30;;;;;;;5.79;100.00;100895.20;103892;1333;22511;-34
2022/11/13 06:20:16;;;;;;;50.80;24.70;;;;;;;5.78;100.00;100896.52;103897;1333;22184;-34
2022/11/13 06:22:42;;;;;;;47.40;23.60;;;;;;;5.77;100.00;100899.44;104034;1341;22387;-33
2022/11/13 06:25:08;;;;;;;44.10;21.10;;;;;;;5.78;100.00;100902.56;103875;1341;22553;-37
2022/11/13 06:27:33;;;;;;;39.50;19.10;;;;;;;5.81;100.00;100903.05;103937;1341;22593;-37
2022/11/13 06:29:59;;;;;;;54.90;26.40;;;;;;;5.81;100.00;100897.67;103054;1340;22519;-37
2022/11/13 06:32:25;;;;;;;61.20;25.10;;;;;;;5.82;100.00;100901.52;103974;1341;23198;-36
2022/11/13 06:34:50;;;;;;;44.90;20.20;;;;;;;5.81;100.00;100900.52;103849;1340;22307;-33
2022/11/13 06:37:16;;;;;;;47.00;21.60;;;;;;;5.79;100.00;100898.19;103881;1340;22153;-37
2022/11/13 06:39:41;;;;;;;41.50;19.90;;;;;;;5.80;100.00;100894.95;104010;1341;22390;-34
2022/11/13 06:42:07;;;;;;;53.00;24.60;;;;;;;5.85;100.00;100891.89;103925;1341;22181;-37
2022/11/13 06:44:32;;;;;;;46.40;21.70;;;;;;;5.82;100.00;100893.84;103959;1341;22168;-33
2022/11/13 06:46:58;;;;;;;54.90;25.70;;;;;;;5.84;100.00;100892.66;103929;1336;22175;-37
2022/11/13 06:49:24;;;;;;;48.80;22.60;;;;;;;5.81;100.00;100890.05;103962;1337;22356;-37
2022/11/13 06:51:49;;;;;;;44.10;22.20;;;;;;;5.82;100.00;100892.48;103935;1340;22301;-36
2022/11/13 06:54:15;;;;;;;60.30;26.50;;;;;;;5.85;100.00;100892.41;103903;1341;22630;-37
2022/11/13 06:56:44;;;;;;;62.50;25.80;;;;;;;5.85;100.00;100886.67;103651;1333;24425;-33
2022/11/13 06:59:10;;;;;;;39.60;19.90;;;;;;;5.85;100.00;100888.99;103522;1337;22215;-36
2022/11/13 07:01:36;;;;;;;50.80;22.30;;;;;;;5.89;100.00;100890.31;103895;1341;22332;-33
2022/11/13 07:04:02;;;;;;;49.10;22.00;;;;;;;5.92;100.00;100888.45;103802;1341;22532;-33
2022/11/13 07:06:28;;;;;;;56.80;24.40;;;;;;;5.94;100.00;100885.60;103123;1341;22577;-36
2022/11/13 07:08:54;;;;;;;47.30;23.60;;;;;;;5.96;100.00;100889.16;103929;1334;22074;-36
2022/11/13 07:11:20;;;;;;;40.70;18.40;;;;;;;5.98;100.00;100882.25;103919;1341;22061;-33
2022/11/13 07:13:46;;;;;;;52.50;22.90;;;;;;;6.02;100.00;100880.81;103881;1340;22291;-36
2022/11/13 07:16:13;;;;;;;47.60;22.30;;;;;;;6.06;100.00;100877.08;103943;1327;22176;-33
2022/11/13 07:18:39;;;;;;;45.20;21.10;;;;;;;6.10;100.00;100880.17;103597;1341;22852;-36
2022/11/13 07:21:06;;;;;;;51.10;28.00;;;;;;;6.14;100.00;100881.65;103666;1334;22528;-36
2022/11/13 07:23:32;;;;;;;56.70;22.60;;;;;;;6.11;100.00;100877.98;103928;1333;22266;-33
2022/11/13 07:25:58;;;;;;;55.70;26.60;;;;;;;6.13;100.00;100876.04;103830;1340;23078;-33
2022/11/13 07:28:23;;;;;;;50.70;24.50;;;;;;;6.15;100.00;100876.54;103444;1340;22516;-33
2022/11/13 07:30:49;;;;;;;36.90;19.60;;;;;;;6.22;100.00;100876.14;103724;1327;22413;-32
2022/11/13 07:33:14;;;;;;;41.30;23.00;;;;;;;6.25;100.00;100871.56;103788;1335;22515;-36
2022/11/13 07:35:41;;;;;;;39.20;19.50;;;;;;;6.29;100.00;100872.42;103827;1340;22549;-36
2022/11/13 07:38:06;;;;;;;46.00;22.10;;;;;;;6.33;100.00;100871.58;103724;1325;22437;-36
2022/11/13 07:40:32;;;;;;;60.40;25.50;;;;;;;6.36;100.00;100867.23;103939;1333;22463;-32
2022/11/13 07:42:58;;;;;;;58.50;27.80;;;;;;;6.38;100.00;100860.86;103965;1341;22591;-34
2022/11/13 07:45:25;;;;;;;66.40;26.60;;;;;;;6.39;100.00;100860.05;103996;1340;22255;-36
2022/11/13 07:47:50;;;;;;;56.00;26.40;;;;;;;6.44;100.00;100861.23;103922;1341;22544;-36
2022/11/13 07:50:16;;;;;;;54.30;25.10;;;;;;;6.49;100.00;100857.20;103739;1341;22092;-36
2022/11/13 07:52:42;;;;;;;52.50;24.00;;;;;;;6.57;100.00;100858.64;103802;1341;22059;-36
2022/11/13 07:55:08;;;;;;;51.20;25.60;;;;;;;6.61;100.00;100854.55;103600;1341;22523;-36
2022/11/13 07:57:34;;;;;;;44.20;19.80;;;;;;;6.64;100.00;100855.58;103792;1341;22517;-33
2022/11/13 07:59:59;;;;;;;43.20;20.20;;;;;;;6.76;100.00;100857.86;103529;1341;22185;-33
2022/11/13 08:02:25;;;;;;;42.70;21.80;;;;;;;6.85;100.00;100853.87;103622;1334;24258;-33
2022/11/13 08:04:50;;;;;;;49.10;28.10;;;;;;;6.87;100.00;100860.05;103633;1325;22517;-33
2022/11/13 08:07:16;;;;;;;46.00;21.20;;;;;;;6.90;100.00;100856.78;103608;1334;22580;-36
2022/11/13 08:09:42;;;;;;;46.10;24.00;;;;;;;6.94;100.00;100856.59;103942;1341;22203;-36
2022/11/13 08:12:07;;;;;;;39.40;21.70;;;;;;;6.98;100.00;100860.54;103873;1336;22209;-36
2022/11/13 08:14:33;;;;;;;54.30;26.90;;;;;;;6.99;100.00;100857.52;103883;1340;22025;-36
2022/11/13 08:16:58;;;;;;;42.10;18.70;;;;;;;6.99;100.00;100858.64;103917;1336;22183;-33
2022/11/13 08:19:24;;;;;;;39.80;18.80;;;;;;;7.08;100.00;100859.63;103885;1336;22097;-37
2022/11/13 08:21:50;;;;;;;32.00;16.80;;;;;;;7.05;100.00;100855.06;103727;1333;22299;-36
2022/11/13 08:24:15;;;;;;;46.80;23.20;;;;;;;7.12;100.00;100852.45;103837;1340;22512;-36
2022/11/13 08:26:41;;;;;;;28.30;17.00;;;;;;;7.20;100.00;100848.55;103873;1333;22060;-34
2022/11/13 08:29:06;;;;;;;52.70;26.80;;;;;;;7.23;100.00;100851.46;103612;1325;22291;-33
2022/11/13 08:31:32;;;;;;;36.40;19.90;;;;;;;7.29;100.00;100853.66;103833;1341;22521;-36
2022/11/13 08:33:59;;;;;;;37.90;22.00;;;;;;;7.36;100.00;100855.12;103796;1341;22515;-46
2022/11/13 08:36:24;;;;;;;44.40;20.30;;;;;;;7.31;100.00;100853.13;103898;1339;22288;-36
2022/11/13 08:38:50;;;;;;;32.20;16.00;;;;;;;7.28;100.00;100852.50;103975;1333;22529;-36
2022/11/13 08:41:16;;;;;;;33.40;18.60;;;;;;;7.27;100.00;100856.46;103875;1340;22264;-33
2022/11/13 08:43:42;;;;;;;44.10;18.30;;;;;;;7.24;100.00;100862.06;103948;1333;22201;-34
2022/11/13 08:46:07;;;;;;;41.40;21.50;;;;;;;7.27;100.00;100863.41;103961;1341;22184;-33
2022/11/13 08:48:33;;;;;;;42.30;19.80;;;;;;;7.21;100.00;100866.28;103773;1341;22352;-33
2022/11/13 08:50:59;;;;;;;34.10;19.30;;;;;;;7.20;100.00;100871.70;103841;1334;22665;-33
2022/11/13 08:53:24;;;;;;;42.70;20.10;;;;;;;7.16;100.00;100873.14;103702;1341;22124;-37
2022/11/13 08:55:50;;;;;;;48.80;22.50;;;;;;;7.16;100.00;100873.84;103486;1341;24353;-32
2022/11/13 08:58:15;;;;;;;44.50;24.10;;;;;;;7.17;100.00;100875.16;103370;1341;23450;-37
2022/11/13 09:00:41;;;;;;;52.20;25.00;;;;;;;7.19;100.00;100879.16;103660;1340;24288;-34
2022/11/13 09:03:08;;;;;;;39.80;21.90;;;;;;;7.20;100.00;100884.87;103178;1340;22268;-34
2022/11/13 09:05:34;;;;;;;43.70;20.80;;;;;;;7.17;100.00;100885.19;103869;1338;22556;-34
2022/11/13 09:08:00;;;;;;;58.20;25.60;;;;;;;7.16;100.00;100886.30;103837;1341;22517;-35
2022/11/13 09:10:26;;;;;;;52.70;25.90;;;;;;;7.17;100.00;100886.98;103829;1338;22696;-37
2022/11/13 09:12:56;;;;;;;54.40;21.00;;;;;;;7.18;100.00;100892.19;103886;1333;22183;-38
2022/11/13 09:15:22;;;;;;;35.40;17.70;;;;;;;7.23;100.00;100888.70;103805;1332;22079;-35
2022/11/13 09:17:48;;;;;;;45.40;21.10;;;;;;;7.27;100.00;100886.78;103628;1341;22525;-37
2022/11/13 09:20:14;;;;;;;46.60;23.30;;;;;;;7.32;100.00;100886.48;103663;1340;22225;-34
2022/11/13 09:22:39;;;;;;;43.80;20.10;;;;;;;7.35;100.00;100881.77;103931;1339;22054;-37
2022/11/13 09:25:05;;;;;;;36.00;19.50;;;;;;;7.39;100.00;100878.00;103912;1337;22080;-37
2022/11/13 09:27:31;;;;;;;36.50;16.30;;;;;;;7.42;100.00;100876.29;103907;1341;22196;-34
2022/11/13 09:29:57;;;;;;;49.60;22.60;;;;;;;7.38;100.00;100881.13;103673;1344;22170;-34
2022/11/13 09:32:22;;;;;;;48.10;21.50;;;;;;;7.39;100.00;100877.81;103906;1333;22809;-37
2022/11/13 09:34:48;;;;;;;87.80;31.70;;;;;;;7.36;100.00;100875.40;103512;1323;22560;-37
2022/11/13 09:37:14;;;;;;;45.90;21.10;;;;;;;7.36;100.00;100869.55;103930;1334;22118;-36
2022/11/13 09:39:40;;;;;;;47.00;22.80;;;;;;;7.35;100.00;100868.63;103915;1341;22215;-36
2022/11/13 09:42:13;;;;;;;41.60;20.40;;;;;;;7.32;100.00;100865.52;103788;1327;22216;-37
2022/11/13 09:44:42;;;;;;;55.90;22.90;;;;;;;7.31;100.00;100864.33;103799;1341;22531;-37
2022/11/13 09:47:12;;;;;;;65.60;27.80;;;;;;;7.28;100.00;100862.44;103265;1344;22523;-37
2022/11/13 09:49:42;;;;;;;63.30;30.40;;;;;;;7.20;100.00;100864.42;103810;1342;22190;-37
2022/11/13 09:52:13;;;;;;;52.30;25.60;;;;;;;7.18;100.00;100864.97;103946;1334;22551;-37
2022/11/13 09:54:39;;;;;;;69.70;35.10;;;;;;;7.16;100.00;100865.14;103840;1345;22805;-34
2022/11/13 09:57:11;;;;;;;116.70;66.60;;;;;;;7.08;100.00;100865.01;103886;1340;22557;-34
2022/11/13 09:59:45;;;;;;;57.30;25.60;;;;;;;6.97;100.00;100866.27;103920;1345;22188;-34
2022/11/13 10:02:15;;;;;;;;;;;;;;;6.94;100.00;100861.08;103988;1346;22434;-34
2022/11/13 10:04:55;;;;;;;47.00;22.80;;;;;;;6.95;100.00;100855.96;103964;1343;22041;-37
2022/11/13 10:07:27;;;;;;;86.90;38.50;;;;;;;6.99;100.00;100860.95;103919;1340;22567;-37
2022/11/13 10:10:00;;;;;;;102.70;37.10;;;;;;;7.02;100.00;100863.91;103797;1341;23920;-34
2022/11/13 10:12:27;;;;;;;58.40;26.20;;;;;;;7.04;100.00;100853.57;103637;1346;22742;-37
2022/11/13 10:14:55;;;;;;;83.60;31.30;;;;;;;7.03;100.00;100857.95;103854;1342;22086;-34
2022/11/13 10:17:31;;;;;;;103.90;42.10;;;;;;;6.98;100.00;100858.56;103861;1342;22217;-37
2022/11/13 10:19:59;;;;;;;100.50;35.20;;;;;;;6.94;100.00;100861.39;103950;1341;22908;-34
2022/11/13 10:22:31;;;;;;;105.10;45.00;;;;;;;6.96;100.00;100857.96;103899;1339;22060;-37
2022/11/13 10:25:02;;;;;;;48.20;20.50;;;;;;;7.03;100.00;100849.10;103617;1344;22532;-37
2022/11/13 10:27:27;;;;;;;66.10;26.10;;;;;;;7.08;100.00;100845.20;103783;1346;22497;-37
2022/11/13 10:29:53;;;;;;;68.40;27.40;;;;;;;7.15;100.00;100840.14;103772;1342;22518;-37
2022/11/13 10:32:21;;;;;;;84.20;32.50;;;;;;;7.18;100.00;100841.08;103644;1342;22580;-34
2022/11/13 10:34:52;;;;;;;56.30;16.80;;;;;;;7.15;100.00;100835.28;103398;1341;22518;-37
2022/11/13 10:37:27;;;;;;;64.70;25.50;;;;;;;7.16;100.00;100831.30;103805;1326;22521;-37
2022/11/13 10:39:52;;;;;;;69.60;27.40;;;;;;;7.18;100.00;100829.35;103805;1339;22559;-38
2022/11/13 10:42:21;;;;;;;46.00;21.30;;;;;;;7.21;100.00;100821.70;102715;1332;22648;-38
2022/11/13 10:44:51;;;;;;;54.30;23.10;;;;;;;7.21;100.00;100815.34;103916;1338;22750;-38
2022/11/13 10:47:19;;;;;;;44.20;20.50;;;;;;;7.25;100.00;100813.35;103866;1342;22157;-35
2022/11/13 10:49:45;;;;;;;50.70;22.60;;;;;;;7.31;100.00;100814.50;103447;1332;22214;-34
2022/11/13 10:52:15;;;;;;;40.80;17.90;;;;;;;7.31;100.00;100816.61;103214;1348;22460;-35
2022/11/13 10:54:41;;;;;;;60.20;22.30;;;;;;;7.40;100.00;100813.63;103839;1342;22647;-35
2022/11/13 10:57:17;;;;;;;43.30;18.10;;;;;;;7.53;100.00;100811.14;103854;1339;22473;-35
2022/11/13 10:59:44;;;;;;;54.10;22.50;;;;;;;7.68;100.00;100804.56;103883;1329;22615;-35